Terminal Aerodrome Forecast
Issued by NWS New Orleans/Baton Rouge, LA

Home | Current Version | Previous Version | Text Only | Print | Product List | Glossary On
Versions: 1 2 3 4 5 6 7 8 9 10 11 12 13 14 15 16 17
000
FTUS44 KLIX 230523
TAFBTR
TAF
KBTR 230523Z 2306/2406 VRB03KT P6SM SKC
     FM231400 27007KT P6SM SCT150
     FM231700 28009KT P6SM SCT050
     FM240100 28004KT P6SM SCT090=

USA.gov is the U.S. government's official web portal to all federal, state and local government web resources and services.